sensor_id;sensor_type;location;lat;lon;timestamp;pressure;altitude;pressure_sealevel;temperature;humidity
47785;BME280;35233;55.686;37.848;2022-10-31T00:01:30;98085.28;;;8.65;50.63
47785;BME280;35233;55.686;37.848;2022-10-31T00:03:57;98080.84;;;8.65;50.32
47785;BME280;35233;55.686;37.848;2022-10-31T00:06:23;98069.47;;;8.65;50.56
47785;BME280;35233;55.686;37.848;2022-10-31T00:08:53;98067.75;;;8.64;50.57
47785;BME280;35233;55.686;37.848;2022-10-31T00:11:19;98072.25;;;8.61;50.52
47785;BME280;35233;55.686;37.848;2022-10-31T00:13:45;98068.34;;;8.70;50.68
47785;BME280;35233;55.686;37.848;2022-10-31T00:16:21;98065.84;;;8.67;50.43
47785;BME280;35233;55.686;37.848;2022-10-31T00:18:52;98072.88;;;8.67;50.58
47785;BME280;35233;55.686;37.848;2022-10-31T00:21:18;98065.47;;;8.75;50.45
47785;BME280;35233;55.686;37.848;2022-10-31T00:23:44;98057.59;;;8.75;50.65
47785;BME280;35233;55.686;37.848;2022-10-31T00:26:09;98055.88;;;8.74;50.60
47785;BME280;35233;55.686;37.848;2022-10-31T00:28:35;98054.94;;;8.75;50.50
47785;BME280;35233;55.686;37.848;2022-10-31T00:31:02;98055.03;;;8.73;50.95
47785;BME280;35233;55.686;37.848;2022-10-31T00:33:28;98063.94;;;8.71;50.82
47785;BME280;35233;55.686;37.848;2022-10-31T00:35:54;98055.75;;;8.77;50.82
47785;BME280;35233;55.686;37.848;2022-10-31T00:38:20;98050.47;;;8.77;50.71
47785;BME280;35233;55.686;37.848;2022-10-31T00:40:46;98052.16;;;8.78;50.81
47785;BME280;35233;55.686;37.848;2022-10-31T00:43:11;98055.59;;;8.80;50.92
47785;BME280;35233;55.686;37.848;2022-10-31T00:45:37;98050.47;;;8.77;50.75
47785;BME280;35233;55.686;37.848;2022-10-31T00:48:02;98036.66;;;8.72;50.55
47785;BME280;35233;55.686;37.848;2022-10-31T00:50:28;98053.59;;;8.85;50.89
47785;BME280;35233;55.686;37.848;2022-10-31T00:52:53;98052.75;;;8.84;50.88
47785;BME280;35233;55.686;37.848;2022-10-31T00:55:19;98053.66;;;8.83;50.75
47785;BME280;35233;55.686;37.848;2022-10-31T00:57:47;98037.16;;;8.80;50.99
47785;BME280;35233;55.686;37.848;2022-10-31T01:00:13;98041.34;;;8.84;50.89
47785;BME280;35233;55.686;37.848;2022-10-31T01:02:39;98049.09;;;8.87;51.05
47785;BME280;35233;55.686;37.848;2022-10-31T01:05:05;98036.81;;;8.88;50.78
47785;BME280;35233;55.686;37.848;2022-10-31T01:07:30;98041.22;;;8.87;50.94
47785;BME280;35233;55.686;37.848;2022-10-31T01:09:56;98049.84;;;8.91;50.83
47785;BME280;35233;55.686;37.848;2022-10-31T01:12:21;98046.34;;;8.90;50.66
47785;BME280;35233;55.686;37.848;2022-10-31T01:14:47;98043.00;;;8.87;50.93
47785;BME280;35233;55.686;37.848;2022-10-31T01:17:13;98028.78;;;8.91;51.08
47785;BME280;35233;55.686;37.848;2022-10-31T01:19:39;98033.41;;;8.86;50.57
47785;BME280;35233;55.686;37.848;2022-10-31T01:22:05;98049.91;;;8.89;50.82
47785;BME280;35233;55.686;37.848;2022-10-31T01:24:32;98042.94;;;8.88;50.41
47785;BME280;35233;55.686;37.848;2022-10-31T01:26:57;98037.72;;;8.87;50.51
47785;BME280;35233;55.686;37.848;2022-10-31T01:29:23;98025.56;;;8.84;50.75
47785;BME280;35233;55.686;37.848;2022-10-31T01:31:48;98036.22;;;8.81;50.38
47785;BME280;35233;55.686;37.848;2022-10-31T01:34:15;98044.22;;;8.79;50.53
47785;BME280;35233;55.686;37.848;2022-10-31T01:36:42;98050.88;;;8.87;50.44
47785;BME280;35233;55.686;37.848;2022-10-31T01:39:13;98042.38;;;8.81;50.70
47785;BME280;35233;55.686;37.848;2022-10-31T01:41:42;98049.03;;;8.89;50.44
47785;BME280;35233;55.686;37.848;2022-10-31T01:49:52;98061.72;;;8.80;50.87
47785;BME280;35233;55.686;37.848;2022-10-31T01:52:23;98053.91;;;8.79;50.52
47785;BME280;35233;55.686;37.848;2022-10-31T01:55:01;98057.25;;;8.82;50.67
47785;BME280;35233;55.686;37.848;2022-10-31T01:57:31;98069.19;;;8.90;51.17
47785;BME280;35233;55.686;37.848;2022-10-31T02:00:00;98046.69;;;8.82;51.34
47785;BME280;35233;55.686;37.848;2022-10-31T02:02:27;98062.34;;;8.86;51.39
47785;BME280;35233;55.686;37.848;2022-10-31T02:04:55;98064.91;;;8.87;51.28
47785;BME280;35233;55.686;37.848;2022-10-31T02:07:29;98043.94;;;8.86;51.08
47785;BME280;35233;55.686;37.848;2022-10-31T02:09:56;98057.16;;;8.84;51.34
47785;BME280;35233;55.686;37.848;2022-10-31T02:12:22;98062.50;;;8.82;51.23
47785;BME280;35233;55.686;37.848;2022-10-31T02:14:49;98066.84;;;8.83;51.56
47785;BME280;35233;55.686;37.848;2022-10-31T02:17:16;98079.09;;;8.84;51.78
47785;BME280;35233;55.686;37.848;2022-10-31T02:33:20;98063.28;;;8.84;52.39
47785;BME280;35233;55.686;37.848;2022-10-31T02:35:55;98066.78;;;8.85;52.39
47785;BME280;35233;55.686;37.848;2022-10-31T02:38:51;98071.44;;;8.78;52.20
47785;BME280;35233;55.686;37.848;2022-10-31T02:44:09;98055.59;;;8.80;52.73
47785;BME280;35233;55.686;37.848;2022-10-31T02:46:47;98067.53;;;8.87;52.57
47785;BME280;35233;55.686;37.848;2022-10-31T02:49:48;98070.25;;;8.86;52.61
47785;BME280;35233;55.686;37.848;2022-10-31T02:52:27;98060.22;;;8.75;52.96
47785;BME280;35233;55.686;37.848;2022-10-31T02:54:54;98049.69;;;8.75;53.02
47785;BME280;35233;55.686;37.848;2022-10-31T02:57:27;98060.88;;;8.80;52.84
47785;BME280;35233;55.686;37.848;2022-10-31T03:00:06;98079.09;;;8.84;53.12
47785;BME280;35233;55.686;37.848;2022-10-31T03:05:48;98071.34;;;8.81;53.16
47785;BME280;35233;55.686;37.848;2022-10-31T03:09:00;98070.41;;;8.82;53.41
47785;BME280;35233;55.686;37.848;2022-10-31T03:11:34;98070.47;;;8.81;53.43
47785;BME280;35233;55.686;37.848;2022-10-31T03:14:11;98071.25;;;8.83;53.55
47785;BME280;35233;55.686;37.848;2022-10-31T03:16:48;98074.69;;;8.85;53.58
47785;BME280;35233;55.686;37.848;2022-10-31T03:19:29;98080.09;;;8.82;53.63
47785;BME280;35233;55.686;37.848;2022-10-31T03:22:04;98085.41;;;8.80;53.54
47785;BME280;35233;55.686;37.848;2022-10-31T03:24:35;98073.19;;;8.79;53.78
47785;BME280;35233;55.686;37.848;2022-10-31T03:27:03;98079.44;;;8.77;53.75
47785;BME280;35233;55.686;37.848;2022-10-31T03:29:34;98087.19;;;8.80;53.29
47785;BME280;35233;55.686;37.848;2022-10-31T03:32:05;98066.47;;;8.72;53.66
47785;BME280;35233;55.686;37.848;2022-10-31T03:34:32;98081.97;;;8.78;53.71
47785;BME280;35233;55.686;37.848;2022-10-31T03:37:02;98081.06;;;8.79;53.60
47785;BME280;35233;55.686;37.848;2022-10-31T03:39:32;98066.56;;;8.71;53.56
47785;BME280;35233;55.686;37.848;2022-10-31T03:42:07;98057.72;;;8.72;53.64
47785;BME280;35233;55.686;37.848;2022-10-31T03:44:34;98072.25;;;8.80;53.58
47785;BME280;35233;55.686;37.848;2022-10-31T03:47:01;98078.34;;;8.81;53.43
47785;BME280;35233;55.686;37.848;2022-10-31T03:49:28;98072.38;;;8.77;53.20
47785;BME280;35233;55.686;37.848;2022-10-31T03:51:59;98076.94;;;8.74;53.19
47785;BME280;35233;55.686;37.848;2022-10-31T03:54:43;98080.53;;;8.73;53.43
47785;BME280;35233;55.686;37.848;2022-10-31T03:59:58;98090.91;;;8.76;53.55
47785;BME280;35233;55.686;37.848;2022-10-31T04:02:28;98090.13;;;8.74;53.61
47785;BME280;35233;55.686;37.848;2022-10-31T04:04:56;98076.09;;;8.73;53.45
47785;BME280;35233;55.686;37.848;2022-10-31T04:07:26;98097.03;;;8.76;53.58
47785;BME280;35233;55.686;37.848;2022-10-31T04:09:53;98093.53;;;8.76;53.68
47785;BME280;35233;55.686;37.848;2022-10-31T04:12:22;98080.53;;;8.73;53.42
47785;BME280;35233;55.686;37.848;2022-10-31T04:14:50;98100.41;;;8.78;53.58
47785;BME280;35233;55.686;37.848;2022-10-31T04:17:18;98103.13;;;8.77;53.38
47785;BME280;35233;55.686;37.848;2022-10-31T04:19:44;98100.66;;;8.74;53.40
47785;BME280;35233;55.686;37.848;2022-10-31T04:22:10;98105.78;;;8.77;53.54
47785;BME280;35233;55.686;37.848;2022-10-31T04:24:38;98105.91;;;8.74;53.52
47785;BME280;35233;55.686;37.848;2022-10-31T04:27:04;98116.28;;;8.77;53.49
47785;BME280;35233;55.686;37.848;2022-10-31T04:29:30;98114.50;;;8.77;53.43
47785;BME280;35233;55.686;37.848;2022-10-31T04:31:55;98100.66;;;8.74;53.75
47785;BME280;35233;55.686;37.848;2022-10-31T04:34:21;98110.19;;;8.76;53.56
47785;BME280;35233;55.686;37.848;2022-10-31T04:36:46;98113.81;;;8.74;53.57
47785;BME280;35233;55.686;37.848;2022-10-31T04:39:12;98112.69;;;8.79;53.54
47785;BME280;35233;55.686;37.848;2022-10-31T04:41:37;98114.75;;;8.73;53.73
47785;BME280;35233;55.686;37.848;2022-10-31T04:44:06;98116.44;;;8.74;53.68
47785;BME280;35233;55.686;37.848;2022-10-31T04:46:31;98120.78;;;8.75;53.54
47785;BME280;35233;55.686;37.848;2022-10-31T04:48:57;98122.56;;;8.74;53.69
47785;BME280;35233;55.686;37.848;2022-10-31T04:51:22;98126.69;;;8.80;53.49
47785;BME280;35233;55.686;37.848;2022-10-31T04:53:48;98134.88;;;8.74;53.63
47785;BME280;35233;55.686;37.848;2022-10-31T04:56:13;98132.16;;;8.75;53.61
47785;BME280;35233;55.686;37.848;2022-10-31T04:58:39;98128.53;;;8.78;53.52
47785;BME280;35233;55.686;37.848;2022-10-31T05:01:05;98129.59;;;8.74;53.46
47785;BME280;35233;55.686;37.848;2022-10-31T05:03:30;98131.25;;;8.76;53.43
47785;BME280;35233;55.686;37.848;2022-10-31T05:05:56;98130.53;;;8.73;53.48
47785;BME280;35233;55.686;37.848;2022-10-31T05:08:21;98139.28;;;8.73;53.35
47785;BME280;35233;55.686;37.848;2022-10-31T05:10:47;98149.69;;;8.76;53.61
47785;BME280;35233;55.686;37.848;2022-10-31T05:13:12;98144.28;;;8.79;53.36
47785;BME280;35233;55.686;37.848;2022-10-31T05:15:40;98147.19;;;8.73;53.42
47785;BME280;35233;55.686;37.848;2022-10-31T05:18:05;98141.97;;;8.72;53.09
47785;BME280;35233;55.686;37.848;2022-10-31T05:20:31;98161.72;;;8.82;53.08
47785;BME280;35233;55.686;37.848;2022-10-31T05:22:58;98164.41;;;8.80;53.18
47785;BME280;35233;55.686;37.848;2022-10-31T05:25:26;98159.34;;;8.76;53.29
47785;BME280;35233;55.686;37.848;2022-10-31T05:27:54;98164.53;;;8.77;52.95
47785;BME280;35233;55.686;37.848;2022-10-31T05:30:21;98169.63;;;8.82;53.17
47785;BME280;35233;55.686;37.848;2022-10-31T05:32:49;98174.75;;;8.85;53.09
47785;BME280;35233;55.686;37.848;2022-10-31T05:35:25;98174.13;;;8.78;53.38
47785;BME280;35233;55.686;37.848;2022-10-31T05:37:51;98182.19;;;8.75;53.18
47785;BME280;35233;55.686;37.848;2022-10-31T05:40:18;98191.16;;;8.71;53.47
47785;BME280;35233;55.686;37.848;2022-10-31T05:42:44;98201.63;;;8.73;52.84
47785;BME280;35233;55.686;37.848;2022-10-31T05:45:13;98205.53;;;8.83;52.96
47785;BME280;35233;55.686;37.848;2022-10-31T05:47:39;98210.53;;;8.89;52.84
47785;BME280;35233;55.686;37.848;2022-10-31T05:50:05;98203.56;;;8.88;52.73
47785;BME280;35233;55.686;37.848;2022-10-31T05:52:31;98218.38;;;8.91;52.61
47785;BME280;35233;55.686;37.848;2022-10-31T05:54:57;98217.31;;;8.95;52.50
47785;BME280;35233;55.686;37.848;2022-10-31T05:57:22;98216.72;;;8.88;52.75
47785;BME280;35233;55.686;37.848;2022-10-31T05:59:48;98214.16;;;8.87;52.39
47785;BME280;35233;55.686;37.848;2022-10-31T06:02:14;98235.03;;;8.91;52.44
47785;BME280;35233;55.686;37.848;2022-10-31T06:04:39;98225.69;;;8.84;52.62
47785;BME280;35233;55.686;37.848;2022-10-31T06:07:04;98231.19;;;8.98;52.13
47785;BME280;35233;55.686;37.848;2022-10-31T06:09:30;98240.06;;;8.96;52.08
47785;BME280;35233;55.686;37.848;2022-10-31T06:11:55;98244.19;;;8.82;52.18
47785;BME280;35233;55.686;37.848;2022-10-31T06:14:21;98259.91;;;8.84;52.16
47785;BME280;35233;55.686;37.848;2022-10-31T06:16:46;98254.31;;;8.92;52.03
47785;BME280;35233;55.686;37.848;2022-10-31T06:19:12;98277.16;;;8.91;52.08
47785;BME280;35233;55.686;37.848;2022-10-31T06:21:37;98274.19;;;8.78;52.06
47785;BME280;35233;55.686;37.848;2022-10-31T06:24:03;98282.63;;;8.87;52.20
47785;BME280;35233;55.686;37.848;2022-10-31T06:26:28;98283.41;;;8.89;52.18
47785;BME280;35233;55.686;37.848;2022-10-31T06:28:54;98299.88;;;8.94;52.29
47785;BME280;35233;55.686;37.848;2022-10-31T06:31:19;98302.97;;;8.83;52.52
47785;BME280;35233;55.686;37.848;2022-10-31T06:33:45;98309.72;;;8.90;52.48
47785;BME280;35233;55.686;37.848;2022-10-31T06:36:10;98309.03;;;8.85;52.35
47785;BME280;35233;55.686;37.848;2022-10-31T06:38:36;98327.75;;;8.79;52.35
47785;BME280;35233;55.686;37.848;2022-10-31T06:41:05;98335.50;;;8.82;52.23
47785;BME280;35233;55.686;37.848;2022-10-31T06:43:30;98327.25;;;8.90;52.30
47785;BME280;35233;55.686;37.848;2022-10-31T06:45:56;98334.97;;;8.94;52.21
47785;BME280;35233;55.686;37.848;2022-10-31T06:48:23;98330.03;;;8.87;52.49
47785;BME280;35233;55.686;37.848;2022-10-31T06:50:48;98333.16;;;8.96;52.19
47785;BME280;35233;55.686;37.848;2022-10-31T06:53:14;98342.47;;;9.03;52.17
47785;BME280;35233;55.686;37.848;2022-10-31T06:55:41;98347.97;;;8.99;52.00
47785;BME280;35233;55.686;37.848;2022-10-31T06:58:08;98347.75;;;9.03;52.09
47785;BME280;35233;55.686;37.848;2022-10-31T07:00:34;98356.19;;;9.12;52.10
47785;BME280;35233;55.686;37.848;2022-10-31T07:03:05;98372.97;;;9.09;52.15
47785;BME280;35233;55.686;37.848;2022-10-31T07:05:31;98360.34;;;8.97;52.39
47785;BME280;35233;55.686;37.848;2022-10-31T07:08:02;98360.72;;;9.08;51.88
47785;BME280;35233;55.686;37.848;2022-10-31T07:10:29;98371.91;;;9.13;52.27
47785;BME280;35233;55.686;37.848;2022-10-31T07:12:59;98382.41;;;9.15;52.40
47785;BME280;35233;55.686;37.848;2022-10-31T07:15:27;98388.34;;;9.20;52.39
47785;BME280;35233;55.686;37.848;2022-10-31T07:17:53;98382.94;;;9.23;52.38
47785;BME280;35233;55.686;37.848;2022-10-31T07:20:19;98394.84;;;9.32;51.97
47785;BME280;35233;55.686;37.848;2022-10-31T07:22:45;98378.56;;;9.22;51.84
47785;BME280;35233;55.686;37.848;2022-10-31T07:25:11;98415.81;;;9.35;51.88
47785;BME280;35233;55.686;37.848;2022-10-31T07:27:41;98412.44;;;9.31;52.01
47785;BME280;35233;55.686;37.848;2022-10-31T07:30:09;98424.88;;;9.27;52.25
47785;BME280;35233;55.686;37.848;2022-10-31T07:32:42;98448.31;;;9.34;52.15
47785;BME280;35233;55.686;37.848;2022-10-31T07:35:09;98448.41;;;9.32;52.04
47785;BME280;35233;55.686;37.848;2022-10-31T07:37:35;98451.75;;;9.36;52.00
47785;BME280;35233;55.686;37.848;2022-10-31T07:40:02;98444.22;;;9.28;51.97
47785;BME280;35233;55.686;37.848;2022-10-31T07:42:28;98462.03;;;9.21;52.74
47785;BME280;35233;55.686;37.848;2022-10-31T07:44:54;98463.94;;;9.18;52.65
47785;BME280;35233;55.686;37.848;2022-10-31T07:47:19;98473.97;;;9.30;52.30
47785;BME280;35233;55.686;37.848;2022-10-31T07:49:45;98473.97;;;9.50;52.12
47785;BME280;35233;55.686;37.848;2022-10-31T07:52:22;98481.44;;;9.41;52.11
47785;BME280;35233;55.686;37.848;2022-10-31T07:54:47;98506.41;;;9.52;51.91
47785;BME280;35233;55.686;37.848;2022-10-31T07:57:13;98499.69;;;9.66;51.44
47785;BME280;35233;55.686;37.848;2022-10-31T07:59:38;98518.94;;;9.68;51.52
47785;BME280;35233;55.686;37.848;2022-10-31T08:02:04;98514.66;;;9.65;51.88
47785;BME280;35233;55.686;37.848;2022-10-31T08:04:30;98511.50;;;9.78;51.54
47785;BME280;35233;55.686;37.848;2022-10-31T08:06:55;98525.53;;;9.78;51.40
47785;BME280;35233;55.686;37.848;2022-10-31T08:09:21;98533.47;;;9.78;51.87
47785;BME280;35233;55.686;37.848;2022-10-31T08:11:46;98529.03;;;9.79;51.39
47785;BME280;35233;55.686;37.848;2022-10-31T08:14:11;98536.94;;;9.58;51.46
47785;BME280;35233;55.686;37.848;2022-10-31T08:16:37;98541.16;;;9.62;51.01
47785;BME280;35233;55.686;37.848;2022-10-31T08:19:02;98552.38;;;9.67;51.33
47785;BME280;35233;55.686;37.848;2022-10-31T08:21:28;98542.75;;;9.66;51.09
47785;BME280;35233;55.686;37.848;2022-10-31T08:23:53;98553.94;;;9.71;51.04
47785;BME280;35233;55.686;37.848;2022-10-31T08:26:19;98564.38;;;9.74;51.20
47785;BME280;35233;55.686;37.848;2022-10-31T08:28:44;98558.91;;;9.79;51.20
47785;BME280;35233;55.686;37.848;2022-10-31T08:31:10;98562.25;;;9.83;50.96
47785;BME280;35233;55.686;37.848;2022-10-31T08:33:35;98574.19;;;9.91;50.78
47785;BME280;35233;55.686;37.848;2022-10-31T08:36:01;98572.34;;;9.93;50.74
47785;BME280;35233;55.686;37.848;2022-10-31T08:38:27;98570.56;;;9.94;50.47
47785;BME280;35233;55.686;37.848;2022-10-31T08:40:52;98585.41;;;9.96;50.67
47785;BME280;35233;55.686;37.848;2022-10-31T08:43:18;98582.75;;;9.76;51.20
47785;BME280;35233;55.686;37.848;2022-10-31T08:45:46;98600.50;;;9.72;51.99
47785;BME280;35233;55.686;37.848;2022-10-31T08:48:14;98595.94;;;9.76;51.63
47785;BME280;35233;55.686;37.848;2022-10-31T08:50:40;98602.16;;;9.75;51.64
47785;BME280;35233;55.686;37.848;2022-10-31T08:53:17;98623.00;;;9.81;51.13
47785;BME280;35233;55.686;37.848;2022-10-31T08:55:44;98619.25;;;10.07;50.80
47785;BME280;35233;55.686;37.848;2022-10-31T08:58:12;98621.63;;;10.13;50.32
47785;BME280;35233;55.686;37.848;2022-10-31T09:00:38;98621.06;;;10.07;50.69
47785;BME280;35233;55.686;37.848;2022-10-31T09:03:06;98613.72;;;9.93;50.96
47785;BME280;35233;55.686;37.848;2022-10-31T09:05:32;98623.19;;;9.77;51.08
47785;BME280;35233;55.686;37.848;2022-10-31T09:07:59;98616.06;;;9.79;50.85
47785;BME280;35233;55.686;37.848;2022-10-31T09:10:26;98635.97;;;9.86;51.15
47785;BME280;35233;55.686;37.848;2022-10-31T09:13:00;98632.72;;;10.01;50.80
47785;BME280;35233;55.686;37.848;2022-10-31T09:15:27;98636.47;;;9.95;50.81
47785;BME280;35233;55.686;37.848;2022-10-31T09:17:53;98628.00;;;9.87;50.52
47785;BME280;35233;55.686;37.848;2022-10-31T09:20:19;98643.28;;;9.79;50.71
47785;BME280;35233;55.686;37.848;2022-10-31T09:22:44;98643.97;;;9.84;50.81
47785;BME280;35233;55.686;37.848;2022-10-31T09:25:10;98646.50;;;9.65;50.73
47785;BME280;35233;55.686;37.848;2022-10-31T09:27:35;98656.47;;;9.79;50.39
47785;BME280;35233;55.686;37.848;2022-10-31T09:30:01;98649.38;;;9.81;50.19
47785;BME280;35233;55.686;37.848;2022-10-31T09:32:27;98649.59;;;9.97;49.58
47785;BME280;35233;55.686;37.848;2022-10-31T09:34:52;98647.41;;;9.86;50.13
47785;BME280;35233;55.686;37.848;2022-10-31T09:37:18;98649.25;;;9.84;50.14
47785;BME280;35233;55.686;37.848;2022-10-31T09:39:43;98672.34;;;10.00;49.66
47785;BME280;35233;55.686;37.848;2022-10-31T09:42:34;98655.66;;;9.99;49.78
47785;BME280;35233;55.686;37.848;2022-10-31T09:45:32;98683.03;;;9.96;49.60
47785;BME280;35233;55.686;37.848;2022-10-31T09:50:59;98695.38;;;9.74;50.16
47785;BME280;35233;55.686;37.848;2022-10-31T09:53:41;98684.38;;;9.85;50.03
47785;BME280;35233;55.686;37.848;2022-10-31T09:56:14;98701.56;;;9.95;49.77
47785;BME280;35233;55.686;37.848;2022-10-31T09:58:56;98709.78;;;9.87;49.53
47785;BME280;35233;55.686;37.848;2022-10-31T10:03:59;98724.56;;;9.91;49.21
47785;BME280;35233;55.686;37.848;2022-10-31T10:06:33;98720.38;;;10.08;48.89
47785;BME280;35233;55.686;37.848;2022-10-31T10:09:01;98720.78;;;9.98;49.19
47785;BME280;35233;55.686;37.848;2022-10-31T10:16:57;98757.41;;;9.84;49.31
47785;BME280;35233;55.686;37.848;2022-10-31T10:22:20;98763.66;;;9.82;49.28
47785;BME280;35233;55.686;37.848;2022-10-31T10:30:34;98778.38;;;10.09;48.98
47785;BME280;35233;55.686;37.848;2022-10-31T10:33:09;98780.72;;;10.17;48.94
47785;BME280;35233;55.686;37.848;2022-10-31T10:35:43;98785.50;;;10.07;49.42
47785;BME280;35233;55.686;37.848;2022-10-31T10:41:17;98788.19;;;10.06;49.78
47785;BME280;35233;55.686;37.848;2022-10-31T10:43:43;98792.88;;;9.99;49.63
47785;BME280;35233;55.686;37.848;2022-10-31T10:51:57;98771.16;;;9.92;49.88
47785;BME280;35233;55.686;37.848;2022-10-31T10:57:46;98798.25;;;9.96;50.20
47785;BME280;35233;55.686;37.848;2022-10-31T11:00:27;98786.59;;;10.02;50.30
47785;BME280;35233;55.686;37.848;2022-10-31T11:02:55;98781.81;;;9.89;50.54
47785;BME280;35233;55.686;37.848;2022-10-31T11:08:31;98787.28;;;9.85;50.53
47785;BME280;35233;55.686;37.848;2022-10-31T11:13:44;98765.47;;;9.80;50.47
47785;BME280;35233;55.686;37.848;2022-10-31T11:16:14;98785.81;;;9.78;50.16
47785;BME280;35233;55.686;37.848;2022-10-31T11:18:45;98775.97;;;9.81;50.08
47785;BME280;35233;55.686;37.848;2022-10-31T11:21:27;98780.91;;;9.90;50.00
47785;BME280;35233;55.686;37.848;2022-10-31T11:24:23;98783.53;;;9.90;50.64
47785;BME280;35233;55.686;37.848;2022-10-31T11:26:51;98793.22;;;9.90;50.34
47785;BME280;35233;55.686;37.848;2022-10-31T11:29:31;98792.19;;;9.94;50.47
47785;BME280;35233;55.686;37.848;2022-10-31T11:31:57;98793.59;;;9.81;50.61
47785;BME280;35233;55.686;37.848;2022-10-31T11:34:37;98794.38;;;9.83;50.26
47785;BME280;35233;55.686;37.848;2022-10-31T11:37:14;98785.69;;;9.81;50.95
47785;BME280;35233;55.686;37.848;2022-10-31T11:39:44;98794.31;;;9.84;50.61
47785;BME280;35233;55.686;37.848;2022-10-31T11:42:11;98794.44;;;9.81;50.58
47785;BME280;35233;55.686;37.848;2022-10-31T11:44:41;98806.13;;;9.74;50.89
47785;BME280;35233;55.686;37.848;2022-10-31T11:47:13;98799.88;;;9.77;50.80
47785;BME280;35233;55.686;37.848;2022-10-31T11:49:42;98796.75;;;9.67;50.59
47785;BME280;35233;55.686;37.848;2022-10-31T11:57:42;98815.50;;;9.59;50.92
47785;BME280;35233;55.686;37.848;2022-10-31T12:00:21;98824.09;;;9.64;51.03
47785;BME280;35233;55.686;37.848;2022-10-31T12:02:47;98826.00;;;9.61;51.25
47785;BME280;35233;55.686;37.848;2022-10-31T12:05:23;98826.03;;;9.59;51.10
47785;BME280;35233;55.686;37.848;2022-10-31T12:07:50;98806.69;;;9.60;51.23
47785;BME280;35233;55.686;37.848;2022-10-31T12:10:16;98836.44;;;9.64;51.57
47785;BME280;35233;55.686;37.848;2022-10-31T12:12:54;98825.94;;;9.62;51.74
47785;BME280;35233;55.686;37.848;2022-10-31T12:15:33;98838.44;;;9.57;51.65
47785;BME280;35233;55.686;37.848;2022-10-31T12:23:42;98846.16;;;9.62;51.82
47785;BME280;35233;55.686;37.848;2022-10-31T12:26:25;98849.00;;;9.57;52.01
47785;BME280;35233;55.686;37.848;2022-10-31T12:31:42;98842.28;;;9.48;52.37
47785;BME280;35233;55.686;37.848;2022-10-31T12:39:57;98855.91;;;9.60;52.44
47785;BME280;35233;55.686;37.848;2022-10-31T12:42:46;98851.63;;;9.57;52.65
47785;BME280;35233;55.686;37.848;2022-10-31T12:54:11;98846.50;;;9.52;52.97
47785;BME280;35233;55.686;37.848;2022-10-31T13:01:49;98841.25;;;9.52;53.16
47785;BME280;35233;55.686;37.848;2022-10-31T13:04:19;98858.03;;;9.50;53.20
47785;BME280;35233;55.686;37.848;2022-10-31T13:06:54;98862.50;;;9.48;53.40
47785;BME280;35233;55.686;37.848;2022-10-31T13:09:27;98861.41;;;9.53;53.32
47785;BME280;35233;55.686;37.848;2022-10-31T13:12:04;98858.25;;;9.44;53.36
47785;BME280;35233;55.686;37.848;2022-10-31T13:14:56;98861.03;;;9.39;53.25
47785;BME280;35233;55.686;37.848;2022-10-31T13:17:35;98871.59;;;9.39;52.99
47785;BME280;35233;55.686;37.848;2022-10-31T13:20:48;98877.63;;;9.43;53.06
47785;BME280;35233;55.686;37.848;2022-10-31T13:23:30;98882.91;;;9.43;53.14
47785;BME280;35233;55.686;37.848;2022-10-31T13:25:58;98895.19;;;9.42;53.07
47785;BME280;35233;55.686;37.848;2022-10-31T13:28:46;98866.72;;;9.28;53.29
47785;BME280;35233;55.686;37.848;2022-10-31T13:31:12;98878.72;;;9.12;53.03
47785;BME280;35233;55.686;37.848;2022-10-31T13:39:03;98900.16;;;9.26;52.73
47785;BME280;35233;55.686;37.848;2022-10-31T13:41:43;98889.78;;;9.22;53.10
47785;BME280;35233;55.686;37.848;2022-10-31T13:46:40;98906.31;;;9.27;53.12
47785;BME280;35233;55.686;37.848;2022-10-31T13:54:48;98914.50;;;9.19;53.03
47785;BME280;35233;55.686;37.848;2022-10-31T14:02:47;98914.31;;;9.24;53.11
47785;BME280;35233;55.686;37.848;2022-10-31T14:05:31;98923.84;;;9.28;52.88
47785;BME280;35233;55.686;37.848;2022-10-31T14:08:01;98924.97;;;9.21;53.31
47785;BME280;35233;55.686;37.848;2022-10-31T14:10:33;98931.06;;;9.23;52.64
47785;BME280;35233;55.686;37.848;2022-10-31T14:13:20;98921.06;;;9.06;53.19
47785;BME280;35233;55.686;37.848;2022-10-31T14:16:26;98942.00;;;9.11;52.99
47785;BME280;35233;55.686;37.848;2022-10-31T14:19:02;98928.41;;;9.23;53.10
47785;BME280;35233;55.686;37.848;2022-10-31T14:21:41;98941.19;;;9.09;53.17
47785;BME280;35233;55.686;37.848;2022-10-31T14:24:34;98938.25;;;9.18;52.82
47785;BME280;35233;55.686;37.848;2022-10-31T14:29:44;98954.41;;;9.07;52.78
47785;BME280;35233;55.686;37.848;2022-10-31T14:42:27;98990.28;;;8.84;52.88
47785;BME280;35233;55.686;37.848;2022-10-31T14:51:18;98998.25;;;9.10;52.87
47785;BME280;35233;55.686;37.848;2022-10-31T14:56:20;98991.03;;;8.88;53.20
47785;BME280;35233;55.686;37.848;2022-10-31T14:58:47;98994.09;;;9.02;53.28
47785;BME280;35233;55.686;37.848;2022-10-31T15:01:36;99002.50;;;9.14;53.08
47785;BME280;35233;55.686;37.848;2022-10-31T15:04:13;99014.03;;;9.10;53.19
47785;BME280;35233;55.686;37.848;2022-10-31T15:06:44;98998.41;;;9.05;53.16
47785;BME280;35233;55.686;37.848;2022-10-31T15:09:29;99002.66;;;9.09;53.36
47785;BME280;35233;55.686;37.848;2022-10-31T15:11:55;99014.16;;;9.06;53.63
47785;BME280;35233;55.686;37.848;2022-10-31T15:14:30;99022.13;;;9.05;53.39
47785;BME280;35233;55.686;37.848;2022-10-31T15:16:57;99023.69;;;9.11;52.89
47785;BME280;35233;55.686;37.848;2022-10-31T15:19:25;99005.53;;;9.01;53.53
47785;BME280;35233;55.686;37.848;2022-10-31T15:21:56;99008.00;;;9.07;53.42
47785;BME280;35233;55.686;37.848;2022-10-31T15:24:25;99038.19;;;8.96;53.60
47785;BME280;35233;55.686;37.848;2022-10-31T15:26:55;99031.31;;;8.92;53.48
47785;BME280;35233;55.686;37.848;2022-10-31T15:29:24;99046.78;;;9.02;53.50
47785;BME280;35233;55.686;37.848;2022-10-31T15:31:58;99052.44;;;8.90;53.65
47785;BME280;35233;55.686;37.848;2022-10-31T15:34:37;99056.59;;;8.97;53.65